Terminal Aerodrome Forecast
Issued by NWS

Home | Current Version | Previous Version | Text Only | Print | Product List | Glossary Off
Versions: 1 2 3 4 5 6 7 8 9 10 11 12 13 14 15 16

000
FTUS43 KMPX 041139
TAFRWF
TAF
KRWF 041139Z 0412/0512 18010KT P6SM OVC009
     FM042100 25010KT P6SM SCT020 BKN050
     FM050400 22007KT P6SM SCT050 BKN090
     FM050800 16008KT P6SM BKN050=

USA.gov is the U.S. government's official web portal to all federal, state and local government web resources and services.